sensor_id;sensor_type;location;lat;lon;timestamp;P1;durP1;ratioP1;P2;durP2;ratioP2
19869;SDS011;10097;50.862;4.696;2022-09-17T00:00:37;9.83;;;1.40;;
19869;SDS011;10097;50.862;4.696;2022-09-17T00:03:04;8.17;;;1.47;;
19869;SDS011;10097;50.862;4.696;2022-09-17T00:05:30;11.03;;;2.00;;
19869;SDS011;10097;50.862;4.696;2022-09-17T00:07:56;11.90;;;1.93;;
19869;SDS011;10097;50.862;4.696;2022-09-17T00:10:22;11.03;;;1.10;;
19869;SDS011;10097;50.862;4.696;2022-09-17T00:12:48;8.60;;;1.37;;
19869;SDS011;10097;50.862;4.696;2022-09-17T00:15:14;8.53;;;1.20;;
19869;SDS011;10097;50.862;4.696;2022-09-17T00:17:40;9.20;;;1.47;;
19869;SDS011;10097;50.862;4.696;2022-09-17T00:20:07;13.60;;;1.47;;
19869;SDS011;10097;50.862;4.696;2022-09-17T00:22:34;10.33;;;1.33;;
19869;SDS011;10097;50.862;4.696;2022-09-17T00:25:01;7.27;;;1.13;;
19869;SDS011;10097;50.862;4.696;2022-09-17T00:27:27;12.03;;;1.30;;
19869;SDS011;10097;50.862;4.696;2022-09-17T00:29:53;10.43;;;1.53;;
19869;SDS011;10097;50.862;4.696;2022-09-17T00:32:18;10.77;;;1.50;;
19869;SDS011;10097;50.862;4.696;2022-09-17T00:34:44;9.23;;;1.30;;
19869;SDS011;10097;50.862;4.696;2022-09-17T00:37:10;11.03;;;1.50;;
19869;SDS011;10097;50.862;4.696;2022-09-17T00:39:36;9.47;;;1.93;;
19869;SDS011;10097;50.862;4.696;2022-09-17T00:42:02;8.47;;;1.13;;
19869;SDS011;10097;50.862;4.696;2022-09-17T00:44:42;9.63;;;1.20;;
19869;SDS011;10097;50.862;4.696;2022-09-17T00:47:20;8.00;;;1.40;;
19869;SDS011;10097;50.862;4.696;2022-09-17T00:50:05;12.03;;;1.60;;
19869;SDS011;10097;50.862;4.696;2022-09-17T00:52:36;11.40;;;1.57;;
19869;SDS011;10097;50.862;4.696;2022-09-17T00:57:40;8.27;;;1.07;;
19869;SDS011;10097;50.862;4.696;2022-09-17T01:00:06;10.73;;;1.60;;
19869;SDS011;10097;50.862;4.696;2022-09-17T01:02:33;13.57;;;2.07;;
19869;SDS011;10097;50.862;4.696;2022-09-17T01:04:59;8.63;;;1.37;;
19869;SDS011;10097;50.862;4.696;2022-09-17T01:07:39;14.07;;;2.87;;
19869;SDS011;10097;50.862;4.696;2022-09-17T01:13:36;8.33;;;1.63;;
19869;SDS011;10097;50.862;4.696;2022-09-17T01:39:02;11.07;;;1.23;;
19869;SDS011;10097;50.862;4.696;2022-09-17T01:41:25;9.87;;;1.13;;
19869;SDS011;10097;50.862;4.696;2022-09-17T01:44:20;15.67;;;1.77;;
19869;SDS011;10097;50.862;4.696;2022-09-17T01:46:51;12.27;;;1.63;;
19869;SDS011;10097;50.862;4.696;2022-09-17T01:49:20;8.07;;;1.30;;
19869;SDS011;10097;50.862;4.696;2022-09-17T01:51:49;14.20;;;1.10;;
19869;SDS011;10097;50.862;4.696;2022-09-17T01:54:20;8.70;;;1.00;;
19869;SDS011;10097;50.862;4.696;2022-09-17T01:59:29;10.83;;;1.07;;
19869;SDS011;10097;50.862;4.696;2022-09-17T02:01:59;8.40;;;1.33;;
19869;SDS011;10097;50.862;4.696;2022-09-17T02:04:35;10.23;;;1.23;;
19869;SDS011;10097;50.862;4.696;2022-09-17T02:07:14;10.63;;;1.20;;
19869;SDS011;10097;50.862;4.696;2022-09-17T02:10:06;12.90;;;1.60;;
19869;SDS011;10097;50.862;4.696;2022-09-17T02:12:35;13.93;;;1.80;;
19869;SDS011;10097;50.862;4.696;2022-09-17T02:15:25;11.43;;;1.33;;
19869;SDS011;10097;50.862;4.696;2022-09-17T02:18:03;12.57;;;1.57;;
19869;SDS011;10097;50.862;4.696;2022-09-17T02:20:43;11.60;;;1.47;;
19869;SDS011;10097;50.862;4.696;2022-09-17T02:23:16;10.73;;;1.90;;
19869;SDS011;10097;50.862;4.696;2022-09-17T02:25:49;9.83;;;1.37;;
19869;SDS011;10097;50.862;4.696;2022-09-17T02:28:35;15.60;;;2.27;;
19869;SDS011;10097;50.862;4.696;2022-09-17T02:31:08;10.13;;;2.03;;
19869;SDS011;10097;50.862;4.696;2022-09-17T02:33:34;10.97;;;2.10;;
19869;SDS011;10097;50.862;4.696;2022-09-17T02:36:02;11.00;;;2.10;;
19869;SDS011;10097;50.862;4.696;2022-09-17T02:38:28;21.50;;;2.17;;
19869;SDS011;10097;50.862;4.696;2022-09-17T02:41:04;11.77;;;1.90;;
19869;SDS011;10097;50.862;4.696;2022-09-17T02:54:15;11.17;;;1.90;;
19869;SDS011;10097;50.862;4.696;2022-09-17T02:59:23;8.53;;;1.33;;
19869;SDS011;10097;50.862;4.696;2022-09-17T03:01:55;18.20;;;2.13;;
19869;SDS011;10097;50.862;4.696;2022-09-17T03:04:27;10.57;;;1.77;;
19869;SDS011;10097;50.862;4.696;2022-09-17T03:06:54;8.90;;;1.20;;
19869;SDS011;10097;50.862;4.696;2022-09-17T03:09:20;16.83;;;2.03;;
19869;SDS011;10097;50.862;4.696;2022-09-17T03:11:45;13.03;;;1.53;;
19869;SDS011;10097;50.862;4.696;2022-09-17T03:14:11;14.00;;;1.40;;
19869;SDS011;10097;50.862;4.696;2022-09-17T03:16:37;10.90;;;1.47;;
19869;SDS011;10097;50.862;4.696;2022-09-17T03:19:03;10.07;;;1.70;;
19869;SDS011;10097;50.862;4.696;2022-09-17T03:21:28;7.47;;;1.70;;
19869;SDS011;10097;50.862;4.696;2022-09-17T03:23:55;9.63;;;1.73;;
19869;SDS011;10097;50.862;4.696;2022-09-17T03:26:21;11.43;;;1.90;;
19869;SDS011;10097;50.862;4.696;2022-09-17T03:28:47;9.20;;;1.63;;
19869;SDS011;10097;50.862;4.696;2022-09-17T03:31:12;15.70;;;1.60;;
19869;SDS011;10097;50.862;4.696;2022-09-17T03:33:38;15.33;;;1.67;;
19869;SDS011;10097;50.862;4.696;2022-09-17T03:36:03;9.57;;;1.60;;
19869;SDS011;10097;50.862;4.696;2022-09-17T03:38:29;16.47;;;1.70;;
19869;SDS011;10097;50.862;4.696;2022-09-17T03:41:05;13.90;;;1.50;;
19869;SDS011;10097;50.862;4.696;2022-09-17T03:43:31;13.63;;;1.70;;
19869;SDS011;10097;50.862;4.696;2022-09-17T03:45:57;14.23;;;2.53;;
19869;SDS011;10097;50.862;4.696;2022-09-17T03:48:24;11.80;;;1.50;;
19869;SDS011;10097;50.862;4.696;2022-09-17T03:50:50;13.07;;;1.90;;
19869;SDS011;10097;50.862;4.696;2022-09-17T03:53:16;12.87;;;1.57;;
19869;SDS011;10097;50.862;4.696;2022-09-17T03:55:41;10.80;;;1.87;;
19869;SDS011;10097;50.862;4.696;2022-09-17T03:58:07;12.30;;;1.50;;
19869;SDS011;10097;50.862;4.696;2022-09-17T04:00:33;10.27;;;1.57;;
19869;SDS011;10097;50.862;4.696;2022-09-17T04:03:00;14.37;;;1.50;;
19869;SDS011;10097;50.862;4.696;2022-09-17T04:05:27;7.77;;;1.53;;
19869;SDS011;10097;50.862;4.696;2022-09-17T04:07:52;9.13;;;1.57;;
19869;SDS011;10097;50.862;4.696;2022-09-17T04:10:18;14.13;;;1.80;;
19869;SDS011;10097;50.862;4.696;2022-09-17T04:12:44;15.07;;;1.73;;
19869;SDS011;10097;50.862;4.696;2022-09-17T04:15:09;7.60;;;1.17;;
19869;SDS011;10097;50.862;4.696;2022-09-17T04:17:35;8.63;;;2.17;;
19869;SDS011;10097;50.862;4.696;2022-09-17T04:20:01;15.07;;;1.53;;
19869;SDS011;10097;50.862;4.696;2022-09-17T04:22:27;10.27;;;1.47;;
19869;SDS011;10097;50.862;4.696;2022-09-17T04:24:53;14.90;;;1.77;;
19869;SDS011;10097;50.862;4.696;2022-09-17T04:27:18;9.03;;;1.67;;
19869;SDS011;10097;50.862;4.696;2022-09-17T04:29:44;9.23;;;1.73;;
19869;SDS011;10097;50.862;4.696;2022-09-17T04:32:10;14.57;;;1.50;;
19869;SDS011;10097;50.862;4.696;2022-09-17T04:34:35;16.77;;;2.40;;
19869;SDS011;10097;50.862;4.696;2022-09-17T04:37:01;13.43;;;1.57;;
19869;SDS011;10097;50.862;4.696;2022-09-17T04:39:27;18.20;;;2.23;;
19869;SDS011;10097;50.862;4.696;2022-09-17T04:41:52;11.10;;;1.97;;
19869;SDS011;10097;50.862;4.696;2022-09-17T04:44:19;17.33;;;2.20;;
19869;SDS011;10097;50.862;4.696;2022-09-17T04:46:44;12.27;;;2.33;;
19869;SDS011;10097;50.862;4.696;2022-09-17T04:49:10;20.00;;;1.90;;
19869;SDS011;10097;50.862;4.696;2022-09-17T04:51:36;16.00;;;2.43;;
19869;SDS011;10097;50.862;4.696;2022-09-17T04:54:02;17.40;;;2.23;;
19869;SDS011;10097;50.862;4.696;2022-09-17T04:56:27;13.90;;;1.77;;
19869;SDS011;10097;50.862;4.696;2022-09-17T04:58:53;12.30;;;1.70;;
19869;SDS011;10097;50.862;4.696;2022-09-17T05:01:18;17.97;;;2.20;;
19869;SDS011;10097;50.862;4.696;2022-09-17T05:03:44;11.43;;;2.20;;
19869;SDS011;10097;50.862;4.696;2022-09-17T05:06:10;13.93;;;1.70;;
19869;SDS011;10097;50.862;4.696;2022-09-17T05:08:36;8.13;;;1.70;;
19869;SDS011;10097;50.862;4.696;2022-09-17T05:11:02;14.40;;;1.97;;
19869;SDS011;10097;50.862;4.696;2022-09-17T05:13:28;12.90;;;1.97;;
19869;SDS011;10097;50.862;4.696;2022-09-17T05:15:54;20.57;;;2.10;;
19869;SDS011;10097;50.862;4.696;2022-09-17T05:18:23;14.20;;;2.07;;
19869;SDS011;10097;50.862;4.696;2022-09-17T05:20:50;14.73;;;1.93;;
19869;SDS011;10097;50.862;4.696;2022-09-17T05:23:15;12.63;;;1.50;;
19869;SDS011;10097;50.862;4.696;2022-09-17T05:25:41;11.27;;;1.80;;
19869;SDS011;10097;50.862;4.696;2022-09-17T05:28:07;15.73;;;1.83;;
19869;SDS011;10097;50.862;4.696;2022-09-17T05:30:33;16.27;;;2.20;;
19869;SDS011;10097;50.862;4.696;2022-09-17T05:33:02;13.17;;;2.13;;
19869;SDS011;10097;50.862;4.696;2022-09-17T05:35:31;16.33;;;2.17;;
19869;SDS011;10097;50.862;4.696;2022-09-17T05:38:01;14.87;;;1.87;;
19869;SDS011;10097;50.862;4.696;2022-09-17T05:40:29;16.27;;;1.97;;
19869;SDS011;10097;50.862;4.696;2022-09-17T05:42:57;11.93;;;1.77;;
19869;SDS011;10097;50.862;4.696;2022-09-17T05:45:24;13.67;;;1.60;;
19869;SDS011;10097;50.862;4.696;2022-09-17T05:47:53;11.47;;;2.03;;
19869;SDS011;10097;50.862;4.696;2022-09-17T05:50:23;15.27;;;1.63;;
19869;SDS011;10097;50.862;4.696;2022-09-17T05:52:50;11.97;;;1.63;;
19869;SDS011;10097;50.862;4.696;2022-09-17T05:55:16;11.63;;;1.70;;
19869;SDS011;10097;50.862;4.696;2022-09-17T05:57:43;19.50;;;2.10;;
19869;SDS011;10097;50.862;4.696;2022-09-17T06:00:08;18.27;;;1.90;;
19869;SDS011;10097;50.862;4.696;2022-09-17T06:02:35;19.80;;;2.60;;
19869;SDS011;10097;50.862;4.696;2022-09-17T06:05:01;17.03;;;2.10;;
19869;SDS011;10097;50.862;4.696;2022-09-17T06:07:28;18.60;;;2.27;;
19869;SDS011;10097;50.862;4.696;2022-09-17T06:09:53;10.93;;;1.80;;
19869;SDS011;10097;50.862;4.696;2022-09-17T06:12:19;18.50;;;2.30;;
19869;SDS011;10097;50.862;4.696;2022-09-17T06:14:45;9.20;;;1.93;;
19869;SDS011;10097;50.862;4.696;2022-09-17T06:17:10;16.27;;;2.30;;
19869;SDS011;10097;50.862;4.696;2022-09-17T06:19:36;14.90;;;2.00;;
19869;SDS011;10097;50.862;4.696;2022-09-17T06:22:02;15.87;;;2.13;;
19869;SDS011;10097;50.862;4.696;2022-09-17T06:24:29;14.33;;;1.77;;
19869;SDS011;10097;50.862;4.696;2022-09-17T06:26:55;11.77;;;1.53;;
19869;SDS011;10097;50.862;4.696;2022-09-17T06:29:20;13.90;;;2.53;;
19869;SDS011;10097;50.862;4.696;2022-09-17T06:31:49;12.27;;;1.63;;
19869;SDS011;10097;50.862;4.696;2022-09-17T06:34:16;11.37;;;2.00;;
19869;SDS011;10097;50.862;4.696;2022-09-17T06:36:42;20.03;;;2.33;;
19869;SDS011;10097;50.862;4.696;2022-09-17T06:39:10;11.00;;;2.00;;
19869;SDS011;10097;50.862;4.696;2022-09-17T06:41:36;15.27;;;2.10;;
19869;SDS011;10097;50.862;4.696;2022-09-17T06:44:09;13.20;;;2.00;;
19869;SDS011;10097;50.862;4.696;2022-09-17T06:46:38;16.67;;;2.40;;
19869;SDS011;10097;50.862;4.696;2022-09-17T06:49:11;16.13;;;2.07;;
19869;SDS011;10097;50.862;4.696;2022-09-17T06:51:37;10.17;;;1.63;;
19869;SDS011;10097;50.862;4.696;2022-09-17T06:54:03;14.57;;;2.63;;
19869;SDS011;10097;50.862;4.696;2022-09-17T06:56:29;11.17;;;1.67;;
19869;SDS011;10097;50.862;4.696;2022-09-17T06:59:02;15.13;;;2.00;;
19869;SDS011;10097;50.862;4.696;2022-09-17T07:01:28;12.40;;;1.50;;
19869;SDS011;10097;50.862;4.696;2022-09-17T07:03:56;15.13;;;2.37;;
19869;SDS011;10097;50.862;4.696;2022-09-17T07:06:22;19.33;;;2.50;;
19869;SDS011;10097;50.862;4.696;2022-09-17T07:08:57;13.07;;;2.20;;
19869;SDS011;10097;50.862;4.696;2022-09-17T07:11:25;17.10;;;2.43;;
19869;SDS011;10097;50.862;4.696;2022-09-17T07:13:50;11.97;;;1.83;;
19869;SDS011;10097;50.862;4.696;2022-09-17T07:16:16;11.07;;;1.77;;
19869;SDS011;10097;50.862;4.696;2022-09-17T07:18:44;17.40;;;2.57;;
19869;SDS011;10097;50.862;4.696;2022-09-17T07:21:10;10.10;;;2.03;;
19869;SDS011;10097;50.862;4.696;2022-09-17T07:23:36;14.30;;;1.93;;
19869;SDS011;10097;50.862;4.696;2022-09-17T07:26:03;11.20;;;1.73;;
19869;SDS011;10097;50.862;4.696;2022-09-17T07:28:32;11.33;;;1.67;;
19869;SDS011;10097;50.862;4.696;2022-09-17T07:31:01;13.97;;;2.00;;
19869;SDS011;10097;50.862;4.696;2022-09-17T07:33:29;12.50;;;2.07;;
19869;SDS011;10097;50.862;4.696;2022-09-17T07:35:58;13.43;;;2.20;;
19869;SDS011;10097;50.862;4.696;2022-09-17T07:38:26;8.60;;;1.77;;
19869;SDS011;10097;50.862;4.696;2022-09-17T07:40:59;14.47;;;1.80;;
19869;SDS011;10097;50.862;4.696;2022-09-17T07:43:27;11.33;;;2.30;;
19869;SDS011;10097;50.862;4.696;2022-09-17T07:45:55;10.23;;;1.47;;
19869;SDS011;10097;50.862;4.696;2022-09-17T07:48:22;16.50;;;2.30;;
19869;SDS011;10097;50.862;4.696;2022-09-17T07:50:51;10.57;;;2.13;;
19869;SDS011;10097;50.862;4.696;2022-09-17T07:53:17;15.33;;;2.00;;
19869;SDS011;10097;50.862;4.696;2022-09-17T07:55:50;17.53;;;3.20;;
19869;SDS011;10097;50.862;4.696;2022-09-17T07:58:23;12.70;;;2.50;;
19869;SDS011;10097;50.862;4.696;2022-09-17T08:00:58;9.20;;;2.13;;
19869;SDS011;10097;50.862;4.696;2022-09-17T08:03:28;11.80;;;1.93;;
19869;SDS011;10097;50.862;4.696;2022-09-17T08:05:59;14.50;;;2.10;;
19869;SDS011;10097;50.862;4.696;2022-09-17T08:08:32;13.13;;;1.50;;
19869;SDS011;10097;50.862;4.696;2022-09-17T08:11:03;9.00;;;1.67;;
19869;SDS011;10097;50.862;4.696;2022-09-17T08:13:31;10.77;;;1.57;;
19869;SDS011;10097;50.862;4.696;2022-09-17T08:15:57;9.33;;;1.27;;
19869;SDS011;10097;50.862;4.696;2022-09-17T08:18:26;9.90;;;1.30;;
19869;SDS011;10097;50.862;4.696;2022-09-17T08:20:59;9.63;;;1.30;;
19869;SDS011;10097;50.862;4.696;2022-09-17T08:23:26;14.50;;;1.47;;
19869;SDS011;10097;50.862;4.696;2022-09-17T08:25:56;13.13;;;1.67;;
19869;SDS011;10097;50.862;4.696;2022-09-17T08:28:23;14.13;;;1.73;;
19869;SDS011;10097;50.862;4.696;2022-09-17T08:30:51;13.10;;;1.50;;
19869;SDS011;10097;50.862;4.696;2022-09-17T08:33:18;7.17;;;1.03;;
19869;SDS011;10097;50.862;4.696;2022-09-17T08:35:54;12.27;;;1.90;;
19869;SDS011;10097;50.862;4.696;2022-09-17T08:38:23;11.73;;;1.40;;
19869;SDS011;10097;50.862;4.696;2022-09-17T08:43:45;9.30;;;1.27;;
19869;SDS011;10097;50.862;4.696;2022-09-17T08:46:12;13.20;;;1.83;;
19869;SDS011;10097;50.862;4.696;2022-09-17T08:48:46;22.27;;;2.23;;
19869;SDS011;10097;50.862;4.696;2022-09-17T08:54:37;12.93;;;1.30;;
19869;SDS011;10097;50.862;4.696;2022-09-17T08:59:59;8.67;;;1.20;;
19869;SDS011;10097;50.862;4.696;2022-09-17T09:02:39;11.40;;;1.70;;
19869;SDS011;10097;50.862;4.696;2022-09-17T09:08:15;10.77;;;1.80;;
19869;SDS011;10097;50.862;4.696;2022-09-17T09:10:53;9.10;;;2.03;;
19869;SDS011;10097;50.862;4.696;2022-09-17T09:13:21;8.33;;;1.70;;
19869;SDS011;10097;50.862;4.696;2022-09-17T09:18:40;9.10;;;1.50;;
19869;SDS011;10097;50.862;4.696;2022-09-17T09:34:48;7.83;;;1.10;;
19869;SDS011;10097;50.862;4.696;2022-09-17T09:37:17;5.80;;;1.03;;
19869;SDS011;10097;50.862;4.696;2022-09-17T09:42:54;10.53;;;1.33;;
19869;SDS011;10097;50.862;4.696;2022-09-17T09:45:36;2.87;;;0.60;;
19869;SDS011;10097;50.862;4.696;2022-09-17T09:51:13;5.77;;;0.90;;
19869;SDS011;10097;50.862;4.696;2022-09-17T09:59:18;8.37;;;1.10;;
19869;SDS011;10097;50.862;4.696;2022-09-17T10:01:44;6.43;;;1.27;;
19869;SDS011;10097;50.862;4.696;2022-09-17T10:04:15;13.97;;;1.37;;
19869;SDS011;10097;50.862;4.696;2022-09-17T10:06:44;8.33;;;1.20;;
19869;SDS011;10097;50.862;4.696;2022-09-17T10:09:11;5.57;;;1.07;;
19869;SDS011;10097;50.862;4.696;2022-09-17T10:11:40;10.50;;;1.60;;
19869;SDS011;10097;50.862;4.696;2022-09-17T10:16:39;5.40;;;1.13;;
19869;SDS011;10097;50.862;4.696;2022-09-17T10:21:32;4.13;;;0.70;;
19869;SDS011;10097;50.862;4.696;2022-09-17T10:24:00;3.93;;;1.00;;
19869;SDS011;10097;50.862;4.696;2022-09-17T10:26:28;4.83;;;1.13;;
19869;SDS011;10097;50.862;4.696;2022-09-17T10:28:59;14.13;;;0.83;;
19869;SDS011;10097;50.862;4.696;2022-09-17T10:31:50;4.07;;;0.50;;
19869;SDS011;10097;50.862;4.696;2022-09-17T10:34:19;3.90;;;0.60;;
19869;SDS011;10097;50.862;4.696;2022-09-17T10:36:50;2.60;;;0.60;;
19869;SDS011;10097;50.862;4.696;2022-09-17T10:44:24;9.57;;;1.30;;
19869;SDS011;10097;50.862;4.696;2022-09-17T10:46:51;7.40;;;1.53;;
19869;SDS011;10097;50.862;4.696;2022-09-17T10:52:09;7.30;;;1.00;;
19869;SDS011;10097;50.862;4.696;2022-09-17T11:03:42;3.50;;;0.50;;
19869;SDS011;10097;50.862;4.696;2022-09-17T11:17:46;5.23;;;0.80;;
19869;SDS011;10097;50.862;4.696;2022-09-17T11:20:02;5.50;;;0.60;;
19869;SDS011;10097;50.862;4.696;2022-09-17T11:25:02;3.33;;;0.53;;
19869;SDS011;10097;50.862;4.696;2022-09-17T11:27:51;4.97;;;0.47;;
19869;SDS011;10097;50.862;4.696;2022-09-17T11:30:23;7.57;;;0.80;;
19869;SDS011;10097;50.862;4.696;2022-09-17T11:35:33;7.60;;;1.00;;
19869;SDS011;10097;50.862;4.696;2022-09-17T11:38:09;4.87;;;0.67;;
19869;SDS011;10097;50.862;4.696;2022-09-17T11:41:03;7.53;;;0.90;;
19869;SDS011;10097;50.862;4.696;2022-09-17T11:43:39;5.10;;;0.70;;
19869;SDS011;10097;50.862;4.696;2022-09-17T11:46:28;3.90;;;0.73;;
19869;SDS011;10097;50.862;4.696;2022-09-17T11:49:08;5.40;;;0.70;;
19869;SDS011;10097;50.862;4.696;2022-09-17T11:51:51;8.27;;;0.70;;
19869;SDS011;10097;50.862;4.696;2022-09-17T11:54:28;6.10;;;0.90;;
19869;SDS011;10097;50.862;4.696;2022-09-17T11:57:21;5.90;;;0.53;;
19869;SDS011;10097;50.862;4.696;2022-09-17T12:05:18;5.43;;;0.77;;
19869;SDS011;10097;50.862;4.696;2022-09-17T12:13:17;5.37;;;0.60;;
19869;SDS011;10097;50.862;4.696;2022-09-17T12:15:59;7.57;;;1.30;;
19869;SDS011;10097;50.862;4.696;2022-09-17T12:21:02;5.93;;;1.13;;
19869;SDS011;10097;50.862;4.696;2022-09-17T12:23:39;6.63;;;0.80;;
19869;SDS011;10097;50.862;4.696;2022-09-17T12:26:32;10.33;;;1.13;;
19869;SDS011;10097;50.862;4.696;2022-09-17T12:29:23;6.70;;;0.90;;
19869;SDS011;10097;50.862;4.696;2022-09-17T12:34:40;9.80;;;1.10;;
19869;SDS011;10097;50.862;4.696;2022-09-17T12:37:18;8.23;;;1.00;;
19869;SDS011;10097;50.862;4.696;2022-09-17T12:43:14;8.33;;;1.10;;
19869;SDS011;10097;50.862;4.696;2022-09-17T12:59:56;9.10;;;1.20;;
19869;SDS011;10097;50.862;4.696;2022-09-17T13:03:03;19.55;;;1.70;;
19869;SDS011;10097;50.862;4.696;2022-09-17T13:08:52;12.80;;;1.47;;
19869;SDS011;10097;50.862;4.696;2022-09-17T13:11:45;9.82;;;0.90;;
19869;SDS011;10097;50.862;4.696;2022-09-17T13:22:45;14.70;;;1.75;;
19869;SDS011;10097;50.862;4.696;2022-09-17T13:25:15;11.30;;;1.30;;
19869;SDS011;10097;50.862;4.696;2022-09-17T13:27:43;8.32;;;1.60;;
19869;SDS011;10097;50.862;4.696;2022-09-17T13:30:11;9.15;;;1.63;;
19869;SDS011;10097;50.862;4.696;2022-09-17T13:32:41;9.23;;;1.40;;
19869;SDS011;10097;50.862;4.696;2022-09-17T13:37:34;7.18;;;1.42;;
19869;SDS011;10097;50.862;4.696;2022-09-17T13:40:03;12.25;;;1.65;;
19869;SDS011;10097;50.862;4.696;2022-09-17T13:42:40;13.95;;;1.83;;
19869;SDS011;10097;50.862;4.696;2022-09-17T13:45:13;10.88;;;1.50;;
19869;SDS011;10097;50.862;4.696;2022-09-17T13:50:24;11.05;;;1.67;;
19869;SDS011;10097;50.862;4.696;2022-09-17T13:52:58;13.48;;;1.52;;
19869;SDS011;10097;50.862;4.696;2022-09-17T13:55:37;11.75;;;1.90;;
19869;SDS011;10097;50.862;4.696;2022-09-17T13:58:07;10.27;;;1.60;;
19869;SDS011;10097;50.862;4.696;2022-09-17T14:06:41;11.75;;;1.60;;
19869;SDS011;10097;50.862;4.696;2022-09-17T14:13:50;12.03;;;1.37;;
19869;SDS011;10097;50.862;4.696;2022-09-17T14:19:00;7.50;;;1.00;;
19869;SDS011;10097;50.862;4.696;2022-09-17T14:21:39;12.17;;;1.30;;
19869;SDS011;10097;50.862;4.696;2022-09-17T14:24:21;6.67;;;0.90;;
19869;SDS011;10097;50.862;4.696;2022-09-17T14:26:55;7.37;;;0.90;;
19869;SDS011;10097;50.862;4.696;2022-09-17T14:32:17;5.73;;;0.63;;
19869;SDS011;10097;50.862;4.696;2022-09-17T14:34:46;4.93;;;0.73;;
19869;SDS011;10097;50.862;4.696;2022-09-17T14:37:14;8.03;;;1.03;;
19869;SDS011;10097;50.862;4.696;2022-09-17T14:39:43;6.20;;;0.88;;
19869;SDS011;10097;50.862;4.696;2022-09-17T14:42:29;4.27;;;0.73;;
19869;SDS011;10097;50.862;4.696;2022-09-17T14:45:00;4.13;;;0.90;;
19869;SDS011;10097;50.862;4.696;2022-09-17T14:47:30;4.22;;;0.50;;
19869;SDS011;10097;50.862;4.696;2022-09-17T14:50:12;4.73;;;0.60;;
19869;SDS011;10097;50.862;4.696;2022-09-17T14:52:49;5.30;;;0.50;;
19869;SDS011;10097;50.862;4.696;2022-09-17T14:55:17;7.30;;;1.00;;
19869;SDS011;10097;50.862;4.696;2022-09-17T14:57:59;6.70;;;0.60;;
19869;SDS011;10097;50.862;4.696;2022-09-17T15:00:33;6.72;;;0.88;;
19869;SDS011;10097;50.862;4.696;2022-09-17T15:03:01;5.10;;;0.83;;
19869;SDS011;10097;50.862;4.696;2022-09-17T15:05:29;5.97;;;0.87;;
19869;SDS011;10097;50.862;4.696;2022-09-17T15:08:04;5.20;;;0.60;;
19869;SDS011;10097;50.862;4.696;2022-09-17T15:16:03;4.43;;;0.90;;
19869;SDS011;10097;50.862;4.696;2022-09-17T15:18:57;7.17;;;0.70;;
19869;SDS011;10097;50.862;4.696;2022-09-17T15:21:33;5.27;;;0.73;;
19869;SDS011;10097;50.862;4.696;2022-09-17T15:24:15;3.50;;;0.60;;
19869;SDS011;10097;50.862;4.696;2022-09-17T15:26:47;4.23;;;0.70;;
19869;SDS011;10097;50.862;4.696;2022-09-17T15:29:15;6.17;;;1.07;;
19869;SDS011;10097;50.862;4.696;2022-09-17T15:31:49;5.40;;;0.67;;
19869;SDS011;10097;50.862;4.696;2022-09-17T15:34:14;6.93;;;0.70;;
19869;SDS011;10097;50.862;4.696;2022-09-17T15:36:41;6.00;;;0.70;;
19869;SDS011;10097;50.862;4.696;2022-09-17T15:39:49;6.43;;;0.83;;
19869;SDS011;10097;50.862;4.696;2022-09-17T15:42:26;5.23;;;0.73;;
19869;SDS011;10097;50.862;4.696;2022-09-17T15:47:47;6.33;;;0.80;;
19869;SDS011;10097;50.862;4.696;2022-09-17T15:52:45;2.57;;;0.73;;
19869;SDS011;10097;50.862;4.696;2022-09-17T15:58:23;6.97;;;1.00;;
19869;SDS011;10097;50.862;4.696;2022-09-17T16:08:52;9.17;;;1.07;;
19869;SDS011;10097;50.862;4.696;2022-09-17T16:11:20;11.27;;;0.87;;
19869;SDS011;10097;50.862;4.696;2022-09-17T16:13:53;9.63;;;1.90;;
19869;SDS011;10097;50.862;4.696;2022-09-17T16:16:24;6.73;;;0.87;;
19869;SDS011;10097;50.862;4.696;2022-09-17T16:18:56;6.40;;;1.17;;
19869;SDS011;10097;50.862;4.696;2022-09-17T16:21:21;8.70;;;1.17;;
19869;SDS011;10097;50.862;4.696;2022-09-17T16:23:47;8.13;;;0.80;;
19869;SDS011;10097;50.862;4.696;2022-09-17T16:26:14;8.30;;;0.90;;
19869;SDS011;10097;50.862;4.696;2022-09-17T16:28:42;8.87;;;1.17;;
19869;SDS011;10097;50.862;4.696;2022-09-17T16:31:14;7.20;;;1.10;;
19869;SDS011;10097;50.862;4.696;2022-09-17T16:33:40;7.27;;;0.90;;
19869;SDS011;10097;50.862;4.696;2022-09-17T16:36:06;7.37;;;1.53;;
19869;SDS011;10097;50.862;4.696;2022-09-17T16:38:32;11.20;;;0.97;;
19869;SDS011;10097;50.862;4.696;2022-09-17T16:40:58;8.67;;;1.30;;
19869;SDS011;10097;50.862;4.696;2022-09-17T16:43:23;13.27;;;1.10;;
19869;SDS011;10097;50.862;4.696;2022-09-17T16:45:59;7.47;;;1.10;;
19869;SDS011;10097;50.862;4.696;2022-09-17T16:48:25;8.60;;;1.57;;
19869;SDS011;10097;50.862;4.696;2022-09-17T16:50:51;7.63;;;0.87;;
19869;SDS011;10097;50.862;4.696;2022-09-17T16:53:16;9.70;;;1.60;;
19869;SDS011;10097;50.862;4.696;2022-09-17T16:55:42;3.60;;;0.93;;
19869;SDS011;10097;50.862;4.696;2022-09-17T16:58:08;7.07;;;1.20;;
19869;SDS011;10097;50.862;4.696;2022-09-17T17:00:34;10.17;;;1.13;;
19869;SDS011;10097;50.862;4.696;2022-09-17T17:03:01;6.50;;;0.80;;
19869;SDS011;10097;50.862;4.696;2022-09-17T17:05:27;6.30;;;0.77;;
19869;SDS011;10097;50.862;4.696;2022-09-17T17:07:57;8.20;;;1.33;;
19869;SDS011;10097;50.862;4.696;2022-09-17T17:10:25;6.17;;;1.10;;
19869;SDS011;10097;50.862;4.696;2022-09-17T17:12:51;7.80;;;1.37;;
19869;SDS011;10097;50.862;4.696;2022-09-17T17:15:17;4.40;;;1.07;;
19869;SDS011;10097;50.862;4.696;2022-09-17T17:17:43;6.60;;;1.30;;
19869;SDS011;10097;50.862;4.696;2022-09-17T17:20:09;10.30;;;1.63;;
19869;SDS011;10097;50.862;4.696;2022-09-17T17:22:38;8.93;;;1.17;;
19869;SDS011;10097;50.862;4.696;2022-09-17T17:25:05;9.93;;;1.50;;
19869;SDS011;10097;50.862;4.696;2022-09-17T17:27:32;10.80;;;1.90;;
19869;SDS011;10097;50.862;4.696;2022-09-17T17:29:58;9.10;;;1.87;;
19869;SDS011;10097;50.862;4.696;2022-09-17T17:32:26;9.80;;;2.03;;
19869;SDS011;10097;50.862;4.696;2022-09-17T17:34:52;6.27;;;1.43;;
19869;SDS011;10097;50.862;4.696;2022-09-17T17:37:18;6.63;;;1.33;;
19869;SDS011;10097;50.862;4.696;2022-09-17T17:39:44;4.30;;;0.97;;
19869;SDS011;10097;50.862;4.696;2022-09-17T17:42:09;10.37;;;1.47;;
19869;SDS011;10097;50.862;4.696;2022-09-17T17:44:35;8.07;;;1.80;;
19869;SDS011;10097;50.862;4.696;2022-09-17T17:47:01;7.33;;;1.50;;
19869;SDS011;10097;50.862;4.696;2022-09-17T17:49:26;8.47;;;1.97;;
19869;SDS011;10097;50.862;4.696;2022-09-17T17:51:52;10.43;;;1.70;;
19869;SDS011;10097;50.862;4.696;2022-09-17T17:54:18;7.90;;;1.70;;
19869;SDS011;10097;50.862;4.696;2022-09-17T17:56:46;6.73;;;1.83;;
19869;SDS011;10097;50.862;4.696;2022-09-17T17:59:12;7.80;;;1.43;;
19869;SDS011;10097;50.862;4.696;2022-09-17T18:01:38;9.63;;;2.00;;
19869;SDS011;10097;50.862;4.696;2022-09-17T18:04:04;6.73;;;1.77;;
19869;SDS011;10097;50.862;4.696;2022-09-17T18:06:33;10.67;;;1.87;;
19869;SDS011;10097;50.862;4.696;2022-09-17T18:09:01;8.03;;;1.80;;
19869;SDS011;10097;50.862;4.696;2022-09-17T18:11:27;11.13;;;2.47;;
19869;SDS011;10097;50.862;4.696;2022-09-17T18:13:55;9.13;;;1.80;;
19869;SDS011;10097;50.862;4.696;2022-09-17T18:16:24;7.47;;;1.93;;
19869;SDS011;10097;50.862;4.696;2022-09-17T18:18:50;10.53;;;2.03;;
19869;SDS011;10097;50.862;4.696;2022-09-17T18:21:18;9.93;;;2.00;;
19869;SDS011;10097;50.862;4.696;2022-09-17T18:23:48;9.50;;;1.80;;
19869;SDS011;10097;50.862;4.696;2022-09-17T18:28:45;13.27;;;2.07;;
19869;SDS011;10097;50.862;4.696;2022-09-17T18:31:16;12.73;;;2.10;;